Time;durP1;ratioP1;P1;durP2;ratioP2;P2;SDS_P1;SDS_P2;PMS_P1;PMS_P2;Temp;Humidity;BMP_temperature;BMP_pressure;BME280_temperature;BME280_humidity;BME280_pressure;Samples;Min_cycle;Max_cycle;Signal;HPM_P1;HPM_P2
2023/02/07 00:00:12;;;;;;;;;;;25.50;99.90;;;;;;4995411;28;19910;-59
2023/02/07 00:02:42;;;;;;;;;;;25.60;99.90;;;;;;4994927;28;19927;-59
2023/02/07 00:05:09;;;;;;;;;;;25.80;99.90;;;;;;4995744;28;20365;-59
2023/02/07 00:07:35;;;;;;;;;;;25.90;99.90;;;;;;4994863;28;19914;-59
2023/02/07 00:10:02;;;;;;;;;;;26.10;99.90;;;;;;5014713;28;20320;-60
2023/02/07 00:12:29;;;;;;;;;;;26.30;99.90;;;;;;5014854;28;19996;-59
2023/02/07 00:14:55;;;;;;;;;;;26.20;99.90;;;;;;5015029;28;20024;-59
2023/02/07 00:17:22;;;;;;;;;;;26.10;99.90;;;;;;5013428;28;20257;-60
2023/02/07 00:19:48;;;;;;;;;;;25.90;99.90;;;;;;5014846;28;19913;-59
2023/02/07 00:22:15;;;;;;;;;;;25.90;99.90;;;;;;5014721;28;19925;-59
2023/02/07 00:24:42;;;;;;;;;;;25.70;99.90;;;;;;5014699;28;19917;-59
2023/02/07 00:27:08;;;;;;;;;;;25.80;99.90;;;;;;5014232;28;20275;-59
2023/02/07 00:29:35;;;;;;;;;;;25.80;99.90;;;;;;5013806;28;20410;-59
2023/02/07 00:32:02;;;;;;;;;;;25.90;99.90;;;;;;5013821;28;19960;-60
2023/02/07 00:34:30;;;;;;;;;;;25.90;99.90;;;;;;5014597;28;19955;-59
2023/02/07 00:36:57;;;;;;;;;;;25.90;99.90;;;;;;5014400;28;19924;-59
2023/02/07 00:39:24;;;;;;;;;;;25.90;99.90;;;;;;5014482;28;19914;-59
2023/02/07 00:41:51;;;;;;;;;;;25.90;99.90;;;;;;5014367;28;19918;-61
2023/02/07 00:44:17;;;;;;;;;;;25.80;99.90;;;;;;5014400;28;19914;-61
2023/02/07 00:46:44;;;;;;;;;;;25.80;99.90;;;;;;5026800;28;19924;-59
2023/02/07 00:49:11;;;;;;;;;;;25.90;99.90;;;;;;5014175;28;19920;-59
2023/02/07 00:51:37;;;;;;;;;;;26.10;99.90;;;;;;5014110;28;19921;-59
2023/02/07 00:54:05;;;;;;;;;;;26.30;99.90;;;;;;5013404;28;20335;-60
2023/02/07 00:56:32;;;;;;;;;;;26.40;99.90;;;;;;5012969;28;19991;-59
2023/02/07 00:58:59;;;;;;;;;;;26.50;99.90;;;;;;5013594;28;20368;-60
2023/02/07 01:01:26;;;;;;;;;;;26.40;99.90;;;;;;5013314;28;19922;-59
2023/02/07 01:03:53;;;;;;;;;;;26.40;99.90;;;;;;5014002;28;20339;-59
2023/02/07 01:06:20;;;;;;;;;;;26.40;99.90;;;;;;5013826;28;19920;-59
2023/02/07 01:08:47;;;;;;;;;;;26.40;99.90;;;;;;5013503;28;19948;-60
2023/02/07 01:11:15;;;;;;;;;;;26.40;99.90;;;;;;5012819;28;19959;-60
2023/02/07 01:13:43;;;;;;;;;;;26.30;99.90;;;;;;5013593;28;19914;-59
2023/02/07 01:16:16;;;;;;;;;;;26.60;99.90;;;;;;5013559;28;20051;-60
2023/02/07 01:18:43;;;;;;;;;;;27.00;99.90;;;;;;5013482;28;19960;-60
2023/02/07 01:21:17;;;;;;;;;;;27.60;99.90;;;;;;5013642;28;20711;-60
2023/02/07 01:23:44;;;;;;;;;;;28.20;99.90;;;;;;5013599;28;19913;-59
2023/02/07 01:26:11;;;;;;;;;;;28.80;99.90;;;;;;5012073;28;19917;-60
2023/02/07 01:28:37;;;;;;;;;;;28.90;99.90;;;;;;5013353;28;19921;-59
2023/02/07 01:31:08;;;;;;;;;;;28.40;99.90;;;;;;5013419;28;19909;-60
2023/02/07 01:33:35;;;;;;;;;;;28.10;99.90;;;;;;5013123;28;19913;-60
2023/02/07 01:36:09;;;;;;;;;;;28.20;99.90;;;;;;5013513;28;19909;-59
2023/02/07 01:38:36;;;;;;;;;;;28.10;99.90;;;;;;5012699;28;19963;-60
2023/02/07 01:41:02;;;;;;;;;;;27.80;99.90;;;;;;5012493;28;19918;-60
2023/02/07 01:43:30;;;;;;;;;;;27.50;99.90;;;;;;5013086;28;20284;-59
2023/02/07 01:45:57;;;;;;;;;;;27.20;99.90;;;;;;5013041;28;19921;-60
2023/02/07 01:48:29;;;;;;;;;;;27.00;99.90;;;;;;5012738;28;19957;-60
2023/02/07 01:50:59;;;;;;;;;;;27.00;99.90;;;;;;5013002;28;19928;-60
2023/02/07 01:53:27;;;;;;;;;;;27.60;99.90;;;;;;5011975;28;20434;-59
2023/02/07 01:55:56;;;;;;;;;;;28.40;99.90;;;;;;5012954;28;19917;-60
2023/02/07 01:58:23;;;;;;;;;;;28.60;99.90;;;;;;5012760;28;19913;-59
2023/02/07 02:00:50;;;;;;;;;;;28.60;99.90;;;;;;5012730;28;19917;-60
2023/02/07 02:03:17;;;;;;;;;;;28.60;99.90;;;;;;5012933;28;20022;-60
2023/02/07 02:05:45;;;;;;;;;;;28.60;99.90;;;;;;5012027;28;20331;-60
2023/02/07 02:08:11;;;;;;;;;;;28.30;99.90;;;;;;5012275;28;19984;-60
2023/02/07 02:10:56;;;;;;;;;;;28.00;99.90;;;;;;5013783;28;19913;-60
2023/02/07 02:13:29;;;;;;;;;;;27.80;99.90;;;;;;5017117;28;20299;-62
2023/02/07 02:15:55;;;;;;;;;;;27.60;99.90;;;;;;5015790;28;20035;-60
2023/02/07 02:18:25;;;;;;;;;;;27.50;99.90;;;;;;5014871;28;20300;-63
2023/02/07 02:21:09;;;;;;;;;;;27.60;99.90;;;;;;5015124;28;20380;-61
2023/02/07 02:23:54;;;;;;;;;;;27.50;99.90;;;;;;5014894;28;20261;-64
2023/02/07 02:26:40;;;;;;;;;;;27.20;99.90;;;;;;5017472;28;19913;-63
2023/02/07 02:29:16;;;;;;;;;;;27.10;99.90;;;;;;5017529;28;19971;-60
2023/02/07 02:31:43;;;;;;;;;;;26.80;99.90;;;;;;5014302;28;19916;-67
2023/02/07 02:34:15;;;;;;;;;;;26.60;99.90;;;;;;5013047;28;19909;-63
2023/02/07 02:36:52;;;;;;;;;;;26.50;99.90;;;;;;5012445;28;19971;-65
2023/02/07 02:39:18;;;;;;;;;;;26.40;99.90;;;;;;5011822;28;20000;-64
2023/02/07 02:41:59;;;;;;;;;;;26.40;99.90;;;;;;5012618;28;19918;-60
2023/02/07 02:44:29;;;;;;;;;;;26.40;99.90;;;;;;5012465;28;19968;-60
2023/02/07 02:46:57;;;;;;;;;;;26.50;99.90;;;;;;5012025;28;19913;-62
2023/02/07 02:49:24;;;;;;;;;;;26.70;99.90;;;;;;5012121;28;20329;-64
2023/02/07 02:51:51;;;;;;;;;;;26.80;99.90;;;;;;5012141;28;19913;-69
2023/02/07 02:54:26;;;;;;;;;;;26.80;99.90;;;;;;5012702;28;19964;-60
2023/02/07 02:56:52;;;;;;;;;;;26.80;99.90;;;;;;5012321;28;19910;-62
2023/02/07 02:59:22;;;;;;;;;;;26.80;99.90;;;;;;5012329;28;19952;-63
2023/02/07 03:01:51;;;;;;;;;;;26.90;99.90;;;;;;5012081;28;19925;-67
2023/02/07 03:04:37;;;;;;;;;;;27.00;99.90;;;;;;5011747;28;19913;-60
2023/02/07 03:07:10;;;;;;;;;;;27.00;99.90;;;;;;5012275;28;19910;-64
2023/02/07 03:09:37;;;;;;;;;;;27.00;99.90;;;;;;5012362;28;19920;-68
2023/02/07 03:12:16;;;;;;;;;;;27.10;99.90;;;;;;5012564;28;19992;-64
2023/02/07 03:14:48;;;;;;;;;;;27.30;99.90;;;;;;5012294;28;19941;-60
2023/02/07 03:17:44;;;;;;;;;;;27.40;99.90;;;;;;5013311;28;19933;-65
2023/02/07 03:20:26;;;;;;;;;;;27.80;99.90;;;;;;5006756;28;19917;-65
2023/02/07 03:22:56;;;;;;;;;;;27.70;99.90;;;;;;5016203;28;19921;-68
2023/02/07 03:25:23;;;;;;;;;;;27.40;99.90;;;;;;5016054;28;19909;-60
2023/02/07 03:27:51;;;;;;;;;;;27.20;99.90;;;;;;5016110;28;20265;-68
2023/02/07 03:30:21;;;;;;;;;;;27.20;99.90;;;;;;5016302;28;19917;-61
2023/02/07 03:32:51;;;;;;;;;;;27.10;99.90;;;;;;5016189;28;19949;-69
2023/02/07 03:35:21;;;;;;;;;;;27.00;99.90;;;;;;5014716;28;19914;-63
2023/02/07 03:37:50;;;;;;;;;;;26.90;99.90;;;;;;5015818;28;19957;-60
2023/02/07 03:40:17;;;;;;;;;;;26.90;99.90;;;;;;5015663;28;20383;-66
2023/02/07 03:42:58;;;;;;;;;;;27.00;99.90;;;;;;5015836;28;20409;-61
2023/02/07 03:45:25;;;;;;;;;;;26.90;99.90;;;;;;5015415;28;19909;-70
2023/02/07 03:47:52;;;;;;;;;;;26.80;99.90;;;;;;5014696;28;19909;-60
2023/02/07 03:50:18;;;;;;;;;;;26.80;99.90;;;;;;5015852;28;19910;-67
2023/02/07 03:52:45;;;;;;;;;;;26.90;99.90;;;;;;5015954;28;19910;-67
2023/02/07 03:55:12;;;;;;;;;;;26.90;99.90;;;;;;5015606;28;20001;-62
2023/02/07 03:57:39;;;;;;;;;;;26.80;99.90;;;;;;5015527;28;19948;-65
2023/02/07 04:00:06;;;;;;;;;;;26.80;99.90;;;;;;5015325;28;20288;-67
2023/02/07 04:02:32;;;;;;;;;;;26.80;99.90;;;;;;5014677;28;19921;-64
2023/02/07 04:04:59;;;;;;;;;;;26.80;99.90;;;;;;5015414;28;19917;-64
2023/02/07 04:07:26;;;;;;;;;;;26.80;99.90;;;;;;5014688;28;19921;-61
2023/02/07 04:09:52;;;;;;;;;;;26.70;99.90;;;;;;5015239;28;19909;-67
2023/02/07 04:12:19;;;;;;;;;;;26.70;99.90;;;;;;5015091;28;19913;-67
2023/02/07 04:14:46;;;;;;;;;;;26.80;99.90;;;;;;5014847;28;20376;-63
2023/02/07 04:17:12;;;;;;;;;;;26.90;99.90;;;;;;5013417;28;20047;-60
2023/02/07 04:19:39;;;;;;;;;;;27.00;99.90;;;;;;5014499;28;19921;-69
2023/02/07 04:22:05;;;;;;;;;;;27.10;99.90;;;;;;5014858;28;19928;-60
2023/02/07 04:24:34;;;;;;;;;;;27.10;99.90;;;;;;5014873;28;20357;-64
2023/02/07 04:27:01;;;;;;;;;;;27.00;99.90;;;;;;5014529;28;20361;-73
2023/02/07 04:29:27;;;;;;;;;;;27.00;99.90;;;;;;5013685;28;19917;-63
2023/02/07 04:31:54;;;;;;;;;;;27.10;99.90;;;;;;5014086;28;19936;-64
2023/02/07 04:34:21;;;;;;;;;;;27.20;99.90;;;;;;5014980;28;19936;-63
2023/02/07 04:36:47;;;;;;;;;;;27.20;99.90;;;;;;5014353;28;20566;-64
2023/02/07 04:39:14;;;;;;;;;;;27.00;99.90;;;;;;5014396;28;19913;-67
2023/02/07 04:41:41;;;;;;;;;;;26.90;99.90;;;;;;5014447;28;20380;-66
2023/02/07 04:44:07;;;;;;;;;;;26.90;99.90;;;;;;5014534;28;19974;-68
2023/02/07 04:46:34;;;;;;;;;;;26.80;99.90;;;;;;5013346;28;20001;-68
2023/02/07 04:49:00;;;;;;;;;;;26.80;99.90;;;;;;5014464;28;20344;-60
2023/02/07 04:51:27;;;;;;;;;;;26.90;99.90;;;;;;5014332;28;20537;-68
2023/02/07 04:53:55;;;;;;;;;;;26.90;99.90;;;;;;5014432;28;20395;-67
2023/02/07 04:56:22;;;;;;;;;;;26.90;99.90;;;;;;5014062;28;19913;-63
2023/02/07 04:58:48;;;;;;;;;;;26.90;99.90;;;;;;5014471;28;19914;-72
2023/02/07 05:01:15;;;;;;;;;;;26.90;99.90;;;;;;5012980;28;19921;-72
2023/02/07 05:03:42;;;;;;;;;;;26.70;99.90;;;;;;5013843;28;20271;-68
2023/02/07 05:06:09;;;;;;;;;;;26.60;99.90;;;;;;5014215;28;19909;-63
2023/02/07 05:08:36;;;;;;;;;;;26.60;99.90;;;;;;5013800;28;19920;-71
2023/02/07 05:11:03;;;;;;;;;;;26.50;99.90;;;;;;5013868;28;19917;-67
2023/02/07 05:13:30;;;;;;;;;;;26.40;99.90;;;;;;5013854;28;19921;-73
2023/02/07 05:15:57;;;;;;;;;;;26.40;99.90;;;;;;5012908;28;20004;-65
2023/02/07 05:18:23;;;;;;;;;;;26.30;99.90;;;;;;5013607;28;20060;-72
2023/02/07 05:20:52;;;;;;;;;;;26.20;99.90;;;;;;5013603;28;19922;-60
2023/02/07 05:23:18;;;;;;;;;;;26.20;99.90;;;;;;5013649;28;19917;-62
2023/02/07 05:25:47;;;;;;;;;;;26.20;99.90;;;;;;5013578;28;19909;-62
2023/02/07 05:28:13;;;;;;;;;;;26.10;99.90;;;;;;5013140;28;19910;-69
2023/02/07 05:30:40;;;;;;;;;;;26.10;99.90;;;;;;5012737;28;20365;-65
2023/02/07 05:33:07;;;;;;;;;;;26.10;99.90;;;;;;5013380;28;20007;-62
2023/02/07 05:35:35;;;;;;;;;;;26.30;99.90;;;;;;5013143;28;19973;-63
2023/02/07 05:38:04;;;;;;;;;;;26.20;99.90;;;;;;5012976;28;19977;-63
2023/02/07 05:40:31;;;;;;;;;;;26.30;99.90;;;;;;5012951;28;20403;-72
2023/02/07 05:42:58;;;;;;;;;;;26.20;99.90;;;;;;5013407;28;19917;-60
2023/02/07 05:45:25;;;;;;;;;;;26.20;99.90;;;;;;5012120;28;20480;-69
2023/02/07 05:47:51;;;;;;;;;;;26.20;99.90;;;;;;5012343;28;20399;-74
2023/02/07 05:50:18;;;;;;;;;;;26.10;99.90;;;;;;5013009;28;19913;-69
2023/02/07 05:52:45;;;;;;;;;;;26.00;99.90;;;;;;5009292;28;19917;-75
2023/02/07 05:55:12;;;;;;;;;;;26.00;99.90;;;;;;5011258;28;19952;-68
2023/02/07 05:57:40;;;;;;;;;;;25.90;99.90;;;;;;5010911;28;19920;-69
2023/02/07 06:00:07;;;;;;;;;;;25.90;99.90;;;;;;5011065;28;19924;-61
2023/02/07 06:02:34;;;;;;;;;;;25.90;99.90;;;;;;5010637;28;20339;-60
2023/02/07 06:05:00;;;;;;;;;;;25.80;99.90;;;;;;5010788;28;19924;-70
2023/02/07 06:07:27;;;;;;;;;;;25.80;99.90;;;;;;5009766;28;19922;-61
2023/02/07 06:09:54;;;;;;;;;;;25.90;99.90;;;;;;5010618;28;20377;-61
2023/02/07 06:12:20;;;;;;;;;;;25.90;99.90;;;;;;5010816;28;19917;-70
2023/02/07 06:14:47;;;;;;;;;;;26.00;99.90;;;;;;5010403;28;19920;-65
2023/02/07 06:17:14;;;;;;;;;;;25.90;99.90;;;;;;5009855;28;19910;-69
2023/02/07 06:19:40;;;;;;;;;;;25.90;99.90;;;;;;5010396;28;20005;-64
2023/02/07 06:22:07;;;;;;;;;;;25.80;99.90;;;;;;5009854;28;19932;-66
2023/02/07 06:24:33;;;;;;;;;;;25.70;99.90;;;;;;5010325;28;20433;-64
2023/02/07 06:27:00;;;;;;;;;;;25.80;99.90;;;;;;5010137;28;19920;-64
2023/02/07 06:29:27;;;;;;;;;;;25.70;99.90;;;;;;5009982;28;19914;-73
2023/02/07 06:31:53;;;;;;;;;;;25.70;99.90;;;;;;5009698;28;19936;-66
2023/02/07 06:34:20;;;;;;;;;;;25.70;99.90;;;;;;5010228;28;19916;-61
2023/02/07 06:36:47;;;;;;;;;;;25.70;99.90;;;;;;5008938;28;19913;-67
2023/02/07 06:39:13;;;;;;;;;;;25.60;99.90;;;;;;5009954;28;20003;-73
2023/02/07 06:41:40;;;;;;;;;;;25.70;99.90;;;;;;5009965;28;20000;-67
2023/02/07 06:44:07;;;;;;;;;;;25.70;99.90;;;;;;5009684;28;19959;-70
2023/02/07 06:46:33;;;;;;;;;;;25.60;99.90;;;;;;4991754;28;19920;-65
2023/02/07 06:49:00;;;;;;;;;;;25.50;99.90;;;;;;5009953;28;19982;-68
2023/02/07 06:51:27;;;;;;;;;;;25.50;99.90;;;;;;5008443;28;19920;-64
2023/02/07 06:53:53;;;;;;;;;;;25.50;99.90;;;;;;5009872;28;20331;-63
2023/02/07 06:56:20;;;;;;;;;;;25.50;99.90;;;;;;5009111;28;19963;-67
2023/02/07 06:58:47;;;;;;;;;;;25.50;99.90;;;;;;5010048;28;19913;-69
2023/02/07 07:01:18;;;;;;;;;;;25.40;99.90;;;;;;5009325;28;20020;-68
2023/02/07 07:03:48;;;;;;;;;;;25.30;99.90;;;;;;5009643;28;20340;-64
2023/02/07 07:06:15;;;;;;;;;;;25.30;99.90;;;;;;5008584;28;19917;-61
2023/02/07 07:08:41;;;;;;;;;;;25.40;99.90;;;;;;5010091;28;19910;-75
2023/02/07 07:11:08;;;;;;;;;;;25.40;99.90;;;;;;5009471;28;19914;-65
2023/02/07 07:13:35;;;;;;;;;;;25.50;99.90;;;;;;5010539;28;20437;-61
2023/02/07 07:16:01;;;;;;;;;;;25.40;99.90;;;;;;5009326;28;19913;-67
2023/02/07 07:18:28;;;;;;;;;;;25.40;99.90;;;;;;5009894;28;20263;-64
2023/02/07 07:20:55;;;;;;;;;;;25.40;99.90;;;;;;5009226;28;19925;-70
2023/02/07 07:23:22;;;;;;;;;;;25.40;99.90;;;;;;5009074;28;19995;-61
2023/02/07 07:25:49;;;;;;;;;;;25.30;99.90;;;;;;5009742;28;19913;-60
2023/02/07 07:28:15;;;;;;;;;;;25.30;99.90;;;;;;5009307;28;19956;-65
2023/02/07 07:30:42;;;;;;;;;;;25.30;99.90;;;;;;5009807;28;19909;-67
2023/02/07 07:33:09;;;;;;;;;;;25.30;99.90;;;;;;5007145;28;19937;-62
2023/02/07 07:35:44;;;;;;;;;;;25.30;99.90;;;;;;5002472;28;19917;-73
2023/02/07 07:38:11;;;;;;;;;;;25.20;99.90;;;;;;5004128;28;20004;-62
2023/02/07 07:40:38;;;;;;;;;;;25.20;99.90;;;;;;5001688;28;19984;-76
2023/02/07 07:43:05;;;;;;;;;;;25.30;99.90;;;;;;5003476;28;19913;-64
2023/02/07 07:45:31;;;;;;;;;;;25.30;99.90;;;;;;5003058;28;19920;-64
2023/02/07 07:47:58;;;;;;;;;;;25.20;99.90;;;;;;5003054;28;19924;-66
2023/02/07 07:50:24;;;;;;;;;;;25.20;99.90;;;;;;5001805;28;20392;-59
2023/02/07 07:52:51;;;;;;;;;;;25.20;99.90;;;;;;5003204;28;20000;-59
2023/02/07 07:55:18;;;;;;;;;;;25.10;99.90;;;;;;5002816;28;20269;-64
2023/02/07 07:57:44;;;;;;;;;;;25.10;99.90;;;;;;5002635;28;20047;-69
2023/02/07 08:00:11;;;;;;;;;;;25.10;99.90;;;;;;5003239;28;19913;-71
2023/02/07 08:02:38;;;;;;;;;;;25.10;99.90;;;;;;5002072;28;19932;-59
2023/02/07 08:05:05;;;;;;;;;;;25.10;99.90;;;;;;5006787;28;20387;-65
2023/02/07 08:07:32;;;;;;;;;;;25.10;99.90;;;;;;5006396;28;20739;-65
2023/02/07 08:09:58;;;;;;;;;;;25.10;99.90;;;;;;5006565;28;19980;-60
2023/02/07 08:12:25;;;;;;;;;;;25.00;99.90;;;;;;5006409;28;19917;-60
2023/02/07 08:14:52;;;;;;;;;;;25.00;99.90;;;;;;5006236;28;20016;-60
2023/02/07 08:17:18;;;;;;;;;;;25.00;99.90;;;;;;5005308;28;19914;-60
2023/02/07 08:19:45;;;;;;;;;;;25.00;99.90;;;;;;5006370;28;19918;-63
2023/02/07 08:22:13;;;;;;;;;;;24.90;99.90;;;;;;5006205;28;19993;-62
2023/02/07 08:24:40;;;;;;;;;;;24.90;99.90;;;;;;5006283;28;19998;-61
2023/02/07 08:27:08;;;;;;;;;;;24.90;99.90;;;;;;5006181;28;20600;-67
2023/02/07 08:29:35;;;;;;;;;;;24.90;99.90;;;;;;5005527;28;19924;-60
2023/02/07 08:32:04;;;;;;;;;;;24.90;99.90;;;;;;5004500;28;20439;-60
2023/02/07 08:34:36;;;;;;;;;;;24.80;99.90;;;;;;5006131;28;19963;-60
2023/02/07 08:37:06;;;;;;;;;;;24.80;99.90;;;;;;5005848;28;20016;-63
2023/02/07 08:39:34;;;;;;;;;;;24.70;99.90;;;;;;5005901;28;19920;-62
2023/02/07 08:42:01;;;;;;;;;;;24.60;99.90;;;;;;5005660;28;19936;-69
2023/02/07 08:44:28;;;;;;;;;;;24.60;99.90;;;;;;5005865;28;19940;-62
2023/02/07 08:46:55;;;;;;;;;;;24.60;99.90;;;;;;5005031;28;20470;-61
2023/02/07 08:49:21;;;;;;;;;;;24.60;99.90;;;;;;5005397;28;19917;-59
2023/02/07 08:51:48;;;;;;;;;;;24.60;99.90;;;;;;5005995;28;19918;-62
2023/02/07 08:54:15;;;;;;;;;;;24.50;99.90;;;;;;5005640;28;20516;-73
2023/02/07 08:56:41;;;;;;;;;;;24.50;99.90;;;;;;5005627;28;19949;-76
2023/02/07 08:59:08;;;;;;;;;;;24.50;99.90;;;;;;4987589;28;19924;-65
2023/02/07 09:01:35;;;;;;;;;;;24.50;99.90;;;;;;5005083;28;19929;-76
2023/02/07 09:04:01;;;;;;;;;;;24.50;99.90;;;;;;5005785;28;19919;-73
2023/02/07 09:06:29;;;;;;;;;;;24.50;99.90;;;;;;5005452;28;19965;-63
2023/02/07 09:08:57;;;;;;;;;;;24.50;99.90;;;;;;5005797;28;19919;-65
2023/02/07 09:11:24;;;;;;;;;;;24.40;99.90;;;;;;5005155;28;19913;-66
2023/02/07 09:13:51;;;;;;;;;;;24.40;99.90;;;;;;5005302;28;19913;-72
2023/02/07 09:16:19;;;;;;;;;;;24.50;99.90;;;;;;5004057;28;20256;-61
2023/02/07 09:18:45;;;;;;;;;;;24.40;99.90;;;;;;5005528;28;20284;-72
2023/02/07 09:21:12;;;;;;;;;;;24.50;99.90;;;;;;5004983;28;20470;-63
2023/02/07 09:23:38;;;;;;;;;;;24.40;99.90;;;;;;5005276;28;19939;-60
2023/02/07 09:26:06;;;;;;;;;;;24.40;99.90;;;;;;5005116;28;19995;-71
2023/02/07 09:28:34;;;;;;;;;;;24.40;99.90;;;;;;5005561;28;19913;-60
2023/02/07 09:31:06;;;;;;;;;;;24.40;99.90;;;;;;5004803;28;19957;-60
2023/02/07 09:33:33;;;;;;;;;;;24.40;99.90;;;;;;5004710;28;20594;-59
2023/02/07 09:36:00;;;;;;;;;;;24.40;99.90;;;;;;5005226;28;20004;-64
2023/02/07 09:38:27;;;;;;;;;;;24.40;99.90;;;;;;5005225;28;19913;-67
2023/02/07 09:40:54;;;;;;;;;;;24.50;99.90;;;;;;5004432;28;20007;-62
2023/02/07 09:43:30;;;;;;;;;;;24.40;99.90;;;;;;5004918;28;19921;-66
2023/02/07 09:45:58;;;;;;;;;;;24.40;99.90;;;;;;5004965;28;19984;-67
2023/02/07 09:48:29;;;;;;;;;;;24.40;99.90;;;;;;5019882;28;19913;-67
2023/02/07 09:50:58;;;;;;;;;;;24.40;99.90;;;;;;5005019;28;19914;-67
2023/02/07 09:53:27;;;;;;;;;;;24.40;99.90;;;;;;5004170;28;19925;-74
2023/02/07 09:55:57;;;;;;;;;;;24.40;99.90;;;;;;5003643;28;19964;-74
2023/02/07 09:58:34;;;;;;;;;;;24.40;99.90;;;;;;5004998;28;20008;-61
2023/02/07 10:01:21;;;;;;;;;;;24.50;99.90;;;;;;5004367;28;19924;-69
2023/02/07 10:03:51;;;;;;;;;;;24.50;99.90;;;;;;5004742;28;19921;-60
2023/02/07 10:06:22;;;;;;;;;;;24.40;99.90;;;;;;5004919;28;20529;-70
2023/02/07 10:08:53;;;;;;;;;;;24.50;99.90;;;;;;5003883;28;19925;-71
2023/02/07 10:11:41;;;;;;;;;;;24.40;99.90;;;;;;5004807;28;19921;-67
2023/02/07 10:14:11;;;;;;;;;;;24.40;99.90;;;;;;5004165;28;20052;-66
2023/02/07 10:16:53;;;;;;;;;;;24.40;99.90;;;;;;5004766;28;19921;-65
2023/02/07 10:19:19;;;;;;;;;;;24.40;99.90;;;;;;5004915;28;20640;-62
2023/02/07 10:21:46;;;;;;;;;;;24.30;99.90;;;;;;5004457;28;20012;-64
2023/02/07 10:24:24;;;;;;;;;;;24.30;99.90;;;;;;5003694;28;19976;-71
2023/02/07 10:26:58;;;;;;;;;;;24.30;99.90;;;;;;5003136;28;19920;-70
2023/02/07 10:29:25;;;;;;;;;;;24.30;99.90;;;;;;5004169;28;19956;-67
2023/02/07 10:31:53;;;;;;;;;;;24.30;99.90;;;;;;5004549;28;19913;-60
2023/02/07 10:34:33;;;;;;;;;;;24.20;99.90;;;;;;5004147;28;19917;-70
2023/02/07 10:37:03;;;;;;;;;;;24.20;99.90;;;;;;5004078;28;20374;-74
2023/02/07 10:39:38;;;;;;;;;;;24.20;99.90;;;;;;5003248;28;19953;-72
2023/02/07 10:42:06;;;;;;;;;;;24.20;99.90;;;;;;5004607;28;19921;-66
2023/02/07 10:44:34;;;;;;;;;;;24.20;99.90;;;;;;5004144;28;20639;-63
2023/02/07 10:47:02;;;;;;;;;;;24.20;99.90;;;;;;5003746;28;19917;-74
2023/02/07 10:49:31;;;;;;;;;;;24.20;99.90;;;;;;5003845;28;19914;-73
2023/02/07 10:52:16;;;;;;;;;;;24.10;99.90;;;;;;4985151;28;20326;-67
2023/02/07 10:54:53;;;;;;;;;;;24.10;99.90;;;;;;5004075;28;20021;-60
2023/02/07 10:57:21;;;;;;;;;;;24.10;99.90;;;;;;5003445;28;20000;-62
2023/02/07 10:59:56;;;;;;;;;;;24.10;99.90;;;;;;5003806;28;19952;-70
2023/02/07 11:02:23;;;;;;;;;;;24.00;99.90;;;;;;5003788;28;20380;-70
2023/02/07 11:04:51;;;;;;;;;;;24.10;99.90;;;;;;5003596;28;20359;-74
2023/02/07 11:07:20;;;;;;;;;;;24.00;99.90;;;;;;5003105;28;19921;-61
2023/02/07 11:09:47;;;;;;;;;;;24.00;99.90;;;;;;5003528;28;19920;-60
2023/02/07 11:12:26;;;;;;;;;;;24.00;99.90;;;;;;5003987;28;20008;-66
2023/02/07 11:15:06;;;;;;;;;;;24.00;99.90;;;;;;5003980;28;20651;-60
2023/02/07 11:17:34;;;;;;;;;;;24.00;99.90;;;;;;5002967;28;20372;-67
2023/02/07 11:20:04;;;;;;;;;;;24.00;99.90;;;;;;5004032;28;19913;-65
2023/02/07 11:22:31;;;;;;;;;;;24.00;99.90;;;;;;5002808;28;20008;-66
2023/02/07 11:25:05;;;;;;;;;;;24.00;99.90;;;;;;5004081;28;19921;-59
2023/02/07 11:27:39;;;;;;;;;;;23.90;99.90;;;;;;5003224;28;19913;-67
2023/02/07 11:30:07;;;;;;;;;;;24.00;99.90;;;;;;5003934;28;19913;-60
2023/02/07 11:32:37;;;;;;;;;;;23.90;99.90;;;;;;5003323;28;19913;-60
2023/02/07 11:35:08;;;;;;;;;;;23.90;99.90;;;;;;5003792;28;20261;-62
2023/02/07 11:37:35;;;;;;;;;;;23.90;99.90;;;;;;5003106;28;19921;-59
2023/02/07 11:40:21;;;;;;;;;;;23.90;99.90;;;;;;5006347;28;19972;-60
2023/02/07 11:42:48;;;;;;;;;;;23.90;99.90;;;;;;5007244;28;20143;-60
2023/02/07 11:45:15;;;;;;;;;;;23.90;99.90;;;;;;5006774;28;19921;-62
2023/02/07 11:47:44;;;;;;;;;;;23.90;99.90;;;;;;5007237;28;19959;-66
2023/02/07 11:50:17;;;;;;;;;;;23.90;99.90;;;;;;5007436;28;19960;-62
2023/02/07 11:52:49;;;;;;;;;;;23.90;99.90;;;;;;5006560;28;19914;-60
2023/02/07 11:55:20;;;;;;;;;;;23.90;99.90;;;;;;5007421;28;19963;-63
2023/02/07 11:57:47;;;;;;;;;;;23.90;99.90;;;;;;5006463;28;19917;-60
2023/02/07 12:00:21;;;;;;;;;;;23.90;99.90;;;;;;5007802;28;19913;-60
2023/02/07 12:02:50;;;;;;;;;;;23.90;99.90;;;;;;5007029;28;20044;-60
2023/02/07 12:05:23;;;;;;;;;;;23.90;99.90;;;;;;5006099;28;19987;-60
2023/02/07 12:07:56;;;;;;;;;;;24.00;99.90;;;;;;5006126;28;19918;-59
2023/02/07 12:10:26;;;;;;;;;;;24.00;99.90;;;;;;5008761;28;19919;-64
2023/02/07 12:13:13;;;;;;;;;;;24.00;99.90;;;;;;5015372;28;19914;-62
2023/02/07 12:15:40;;;;;;;;;;;24.00;99.90;;;;;;5015020;28;19914;-60
2023/02/07 12:18:09;;;;;;;;;;;24.00;99.90;;;;;;5015339;28;19909;-60
2023/02/07 12:20:43;;;;;;;;;;;24.00;99.90;;;;;;5014636;28;19918;-59
2023/02/07 12:23:13;;;;;;;;;;;24.00;99.90;;;;;;5015187;28;20364;-60
2023/02/07 12:25:52;;;;;;;;;;;24.00;99.90;;;;;;5014931;28;19913;-61
2023/02/07 12:28:21;;;;;;;;;;;24.00;99.90;;;;;;5014912;28;19920;-60
2023/02/07 12:30:49;;;;;;;;;;;24.00;99.90;;;;;;5014044;28;20502;-60
2023/02/07 12:33:19;;;;;;;;;;;24.00;99.90;;;;;;5014941;28;20002;-63
2023/02/07 12:35:48;;;;;;;;;;;23.90;99.90;;;;;;5014851;28;19992;-72
2023/02/07 12:38:23;;;;;;;;;;;24.00;99.90;;;;;;5015070;28;19914;-60
2023/02/07 12:40:50;;;;;;;;;;;23.90;99.90;;;;;;5015029;28;19917;-60
2023/02/07 12:43:25;;;;;;;;;;;23.90;99.90;;;;;;5014523;28;19924;-66
2023/02/07 12:45:51;;;;;;;;;;;23.90;99.90;;;;;;5013710;28;19943;-60
2023/02/07 12:48:24;;;;;;;;;;;23.90;99.90;;;;;;5014566;28;20268;-60
2023/02/07 12:50:51;;;;;;;;;;;23.90;99.90;;;;;;5013811;28;20375;-63
2023/02/07 12:53:30;;;;;;;;;;;23.90;99.90;;;;;;5014573;28;19921;-59
2023/02/07 12:56:07;;;;;;;;;;;23.80;99.90;;;;;;5014326;28;19917;-65
2023/02/07 12:58:39;;;;;;;;;;;23.80;99.90;;;;;;5014443;28;19920;-61
2023/02/07 13:01:26;;;;;;;;;;;23.80;99.90;;;;;;5013550;28;20280;-60
2023/02/07 13:04:11;;;;;;;;;;;23.70;99.90;;;;;;5003927;28;19921;-61
2023/02/07 13:06:54;;;;;;;;;;;23.70;99.90;;;;;;5014096;28;19940;-59
2023/02/07 13:09:32;;;;;;;;;;;23.70;99.90;;;;;;5013978;28;19969;-59
2023/02/07 13:12:08;;;;;;;;;;;23.60;99.90;;;;;;5014241;28;19961;-63
2023/02/07 13:14:35;;;;;;;;;;;23.70;99.90;;;;;;5013867;28;20005;-60
2023/02/07 13:17:20;;;;;;;;;;;23.70;99.90;;;;;;5013724;28;20367;-62
2023/02/07 13:19:49;;;;;;;;;;;23.70;99.90;;;;;;5014146;28;19913;-60
2023/02/07 13:22:19;;;;;;;;;;;23.70;99.90;;;;;;5014126;28;20012;-60
2023/02/07 13:24:46;;;;;;;;;;;23.70;99.90;;;;;;5014105;28;20036;-59
2023/02/07 13:27:16;;;;;;;;;;;23.60;99.90;;;;;;5012458;28;19921;-60
2023/02/07 13:29:43;;;;;;;;;;;23.60;99.90;;;;;;5014166;28;19909;-63
2023/02/07 13:32:14;;;;;;;;;;;23.60;99.90;;;;;;5014142;28;20451;-63
2023/02/07 13:34:46;;;;;;;;;;;23.50;99.90;;;;;;5013937;28;20373;-66
2023/02/07 13:37:15;;;;;;;;;;;23.50;99.90;;;;;;5013296;28;19909;-59
2023/02/07 13:39:54;;;;;;;;;;;23.50;99.90;;;;;;5013843;28;19910;-59
2023/02/07 13:42:39;;;;;;;;;;;23.50;99.90;;;;;;5013246;28;20376;-64
2023/02/07 13:45:24;;;;;;;;;;;23.50;99.90;;;;;;5013918;28;19916;-70
2023/02/07 13:48:10;;;;;;;;;;;23.50;99.90;;;;;;5013755;28;19949;-61
2023/02/07 13:50:39;;;;;;;;;;;23.50;99.90;;;;;;5013646;28;19993;-60
2023/02/07 13:53:21;;;;;;;;;;;23.40;99.90;;;;;;5013700;28;19910;-63
2023/02/07 13:55:48;;;;;;;;;;;23.40;99.90;;;;;;5012622;28;19928;-64
2023/02/07 14:01:19;;;;;;;;;;;23.40;99.90;;;;;;5012902;28;19928;-59
2023/02/07 14:04:06;;;;;;;;;;;23.40;99.90;;;;;;5013297;28;19924;-61
2023/02/07 14:06:36;;;;;;;;;;;23.40;99.90;;;;;;5002594;28;20373;-60
2023/02/07 14:09:03;;;;;;;;;;;23.40;99.90;;;;;;5013346;28;20008;-61
2023/02/07 14:11:42;;;;;;;;;;;23.40;99.90;;;;;;5011404;28;20384;-63
2023/02/07 14:14:23;;;;;;;;;;;23.40;99.90;;;;;;5012919;28;20011;-73
2023/02/07 14:16:52;;;;;;;;;;;23.40;99.90;;;;;;5013187;28;19921;-65
2023/02/07 14:19:37;;;;;;;;;;;23.40;99.90;;;;;;5012975;28;19910;-62
2023/02/07 14:22:16;;;;;;;;;;;23.40;99.90;;;;;;5012945;28;19932;-59
2023/02/07 14:24:58;;;;;;;;;;;23.40;99.90;;;;;;5012094;28;19918;-59
2023/02/07 14:27:29;;;;;;;;;;;23.40;99.90;;;;;;5012141;28;19909;-60
2023/02/07 14:30:15;;;;;;;;;;;23.40;99.90;;;;;;5012961;28;19973;-60
2023/02/07 14:32:45;;;;;;;;;;;23.30;99.90;;;;;;5012734;28;19913;-60